Unicom:                    122.8

AWOS:                  118.275

Elevation           1458’ MSL

TPA:                   2500’ MSL

06/24:         5003’ L   75’ W

PAPI:       06/Left     24/Left

(Operate lights on unicom freq.)

Traffic Pattern: Left

Beacon: Sunset to Sunrise

Windsock: yes, lighted

Segmented Circle: No

 

Cleveland Center: 126.72/291.65

FSS: Altoona

[Source: ADDS]
METAR
KFKL 090956Z AUTO 23009G17KT 200V260 10SM BKN024 OVC032 11/06 A2935 RMK AO2 SLP937 T01060056 =
KFKL 090850Z 0909/1006 23007KT P6SM VCSH SCT250 FM091100 26010KT P6SM VCSH OVC015 FM091600 29015G26KT P6SM BKN035 FM092100 27015G22KT 6SM -SHRA OVC050 FM100000 28011G15KT 5SM -SHRASN BKN045
TAF
KFKL 090850Z 0909/1006 23007KT P6SM VCSH SCT250 FM091100 26010KT P6SM VCSH OVC015 FM091600 29015G26KT P6SM BKN035 FM092100 27015G22KT 6SM -SHRA OVC050 FM100000 28011G15KT 5SM -SHRASN BKN045 =
[Source: ADDS]
METAR
KDUJ 090953Z AUTO 23007KT 10SM FEW055 09/04 A2935 RMK AO2 SLP934 T00940039 =
KDUJ 090850Z 0909/1006 18007KT P6SM OVC050 FM091100 25012KT P6SM VCSH OVC015 FM091700 29019G30KT P6SM VCSH BKN035 FM092300 28013G22KT 5SM -SHRASN BKN050
TAF
KDUJ 090850Z 0909/1006 18007KT P6SM OVC050 FM091100 25012KT P6SM VCSH OVC015 FM091700 29019G30KT P6SM VCSH BKN035 FM092300 28013G22KT 5SM -SHRASN BKN050 =

Nearby Overnight Accommodations.

Park Inn by Radisson

45 Holiday Inn Rd

Clarion, PA 16214

Phone # (814) 226-8850

Park Inn by Radisson

45 Holiday Inn Rd Clarion, PA 16214 Phone # (814) 226-8850

Microtel

121 North Point Drive

Clarion, PA 16214

Phone # (814) 227-2223

Microtel

121 North Point Drive Clarion, PA 16214 Phone # (814) 227-2223

Hampton Inn and Suites

4 Hospital Drive

Clarion, PA 16214

Phone # (814) 226-4444

Hampton Inn & Suites

4 Hospital Drive Clarion, PA 16214 Phone # (814) 226-4444

Comfort Inn

129 Dolby Street

Clarion, PA 16214

Phone # (814) 226-5230

Comfort Inn

129 Dolby Street Clarion, PA 16214 Phone # (814) 226-5230

Quality Inn

24 United Drive

Clarion, PA 16214 

Phone # (814) 226-8682 


Quality Inn

24 United Drive Clarion, PA 16214 Phone # (814) 226-8682

Holiday Inn Express

325 Perkins Road

Clarion, PA 16214

Phone (814) 223-4010


Holiday Inn Express

325 Perkins Road Clarion, PA 16214 Phone (814) 223-4010

Super 8 Motel

135 Hotel Road

Clarion, PA 16214

Phone # (800) 536-9326

Super 8 Motel

135 Hotel Road Clarion, PA 16214 Phone # (800) 536-9326


Transportation.

Enterprise

545 South Fifth Avenue

Clarion, PA 16214

Phone # (814) 227-1284

Enterprise

545 South Fifth Avenue Clarion, PA 16214 Phone # (814) 227-1284

Clarion County Taxi, Inc.

East End Road

Clarion County Taxi, Inc.

Shippenville, PA 16254

Phone # (814) 226-8635

 *cash, check, debit


Choice Cab Co.

Clarion, PA 16214

Phone # (814) 221- 4992

 *cash only